Citadel — PBOK — position and weather

sailwx.info

Track history (hours):
 
Tides and Currents Weather Stations Pressure Air Temp Water Temp Dewpoint Dewpoint Depression Visibility Wind Speed Wind Dir Waves Ship Positions

Citadel

Last reported at 2015-Jul-05 12:32 UTC. Time now 2015-Jul-05 12:53 UTC.
Position N 49°14' W 000°18'.

Length 111 m; draft 4 m.

Type: Cargo ship. MMSI: 245977000.

Date/timePositionNaut miles runAvg speedWind from/ knotsBaromVisibWave heightAir tempDewpointWater temp
2015-Jul-05 12:32N 49°14' W 000°18'0 0.0
2015-Jul-05 11:32N 49°14' W 000°18'0 0.0
2015-Jul-05 10:31N 49°14' W 000°18'0 0.0
2015-Jul-05 09:31N 49°14' W 000°18'0 0.0
2015-Jul-05 08:33N 49°14' W 000°18'0 0.0
2015-Jul-05 07:33N 49°14' W 000°18'0 0.0
2015-Jul-05 06:33N 49°14' W 000°18'0 0.0
2015-Jul-05 05:32N 49°14' W 000°18'0 0.0
2015-Jul-05 04:32N 49°14' W 000°18'0 0.0
2015-Jul-05 03:31N 49°14' W 000°18'0 0.0
2015-Jul-05 02:31N 49°14' W 000°18'0 0.0
2015-Jul-05 01:33N 49°14' W 000°18'0 0.0
2015-Jul-05 00:33N 49°14' W 000°18'0 0.0
2015-Jul-04 23:32N 49°14' W 000°18'0 0.0
2015-Jul-04 22:32N 49°14' W 000°18'0 0.0
2015-Jul-04 21:32N 49°14' W 000°18'0 0.0
2015-Jul-04 20:28N 49°14' W 000°18'0 0.0
2015-Jul-04 19:31N 49°14' W 000°18'0 0.0
2015-Jul-04 18:33N 49°14' W 000°18'0 0.0
2015-Jul-04 17:33N 49°14' W 000°18'0 0.0
2015-Jul-04 16:32N 49°14' W 000°18'0 0.0
2015-Jul-04 15:32N 49°14' W 000°18'0 0.0
2015-Jul-04 14:32N 49°14' W 000°18'0 0.0
2015-Jul-04 13:31N 49°14' W 000°18'0 0.0
2015-Jul-04 12:31N 49°14' W 000°18'0 0.0
2015-Jul-04 11:33N 49°14' W 000°18'0 0.3
2015-Jul-04 10:34N 49°13' W 000°18'4 3.9
2015-Jul-04 09:33N 49°17' W 000°15'4 4.3
2015-Jul-04 08:34N 49°21' W 000°14'1111.2
2015-Jul-04 07:34N 49°32' W 000°08'1212.4
2015-Jul-04 06:34N 49°43' W 000°02'1312.7
2015-Jul-04 05:32N 49°54' E 000°09'1312.9
2015-Jul-04 04:33N 50°05' E 000°19'1312.6
2015-Jul-04 03:31N 50°16' E 000°30'2211.0
2015-Jul-04 01:32N 50°37' E 000°42'1110.9
2015-Jul-04 00:33N 50°44' E 000°55'1210.1
2015-Jul-03 23:19N 50°51' E 001°10'810.5
2015-Jul-03 22:33N 50°56' E 001°20'1211.9
2015-Jul-03 21:34N 51°04' E 001°35'1312.5
2015-Jul-03 20:33N 51°02' E 001°55'1010.2
2015-Jul-03 19:33N 51°00' E 002°11'0 0.0
2015-Jul-03 18:09N 51°00' E 002°11'0 0.0
2015-Jul-03 16:28N 51°00' E 002°11'0 0.0
2015-Jul-03 14:03N 51°00' E 002°11'0 0.0
2015-Jul-03 13:33N 51°00' E 002°11'0 0.0
2015-Jul-03 12:06N 51°00' E 002°11'0 0.0
2015-Jul-03 11:24N 51°00' E 002°11'0 0.0
2015-Jul-03 10:05N 51°00' E 002°11'0 0.0
2015-Jul-03 09:22N 51°00' E 002°11'0 0.0
2015-Jul-03 08:27N 51°00' E 002°11'3 3.4
2015-Jul-03 07:33N 51°03' E 002°08'1010.1
2015-Jul-03 06:31N 51°02' E 001°52'6 6.4
2015-Jul-03 05:33N 50°59' E 001°43'8 7.5
2015-Jul-03 04:32N 50°55' E 001°32'13 9.4
2015-Jul-03 03:07N 50°43' E 001°23'3513.5
2015-Jul-03 00:33N 50°17' E 000°46'1813.9
2015-Jul-02 23:17N 50°04' E 000°29'1114.6
2015-Jul-02 22:34N 49°55' E 000°18'1615.6
2015-Jul-02 21:34N 49°43' E 000°03'1514.7
2015-Jul-02 20:34N 49°30' W 000°05'1111.4
2015-Jul-02 19:33N 49°26' E 000°11'1211.6
2015-Jul-02 18:33N 49°29' E 000°29'11 9.4
2015-Jul-02 17:23N 49°31' E 000°45'1 0.0
2015-Jun-30 19:32N 49°30' E 000°46'9 8.8
2015-Jun-30 18:33N 49°26' E 000°34'1010.5
2015-Jun-30 17:33N 49°26' E 000°18'1212.0
2015-Jun-30 16:33N 49°28' W 000°00'5 5.4
2015-Jun-30 15:33N 49°32' W 000°05'1010.1
2015-Jun-30 14:33N 49°41' E 000°01'1211.8
2015-Jun-30 13:33N 49°52' E 000°09'4611.4
2015-Jun-30 09:33N 50°34' E 000°38'1110.8
2015-Jun-30 08:33N 50°41' E 000°51'1111.0
2015-Jun-30 07:33N 50°48' E 001°04'1211.7
2015-Jun-30 06:33N 50°55' E 001°19'1313.3
2015-Jun-30 05:34N 51°04' E 001°34'1212.3
2015-Jun-30 04:33N 51°02' E 001°53'1313.4
2015-Jun-30 03:33N 51°04' E 002°14'4 4.3
2015-Jun-30 02:33N 51°03' E 002°21'3 2.5
2015-Jun-30 01:33N 51°03' E 002°17'0 0.0
2015-Jun-30 00:33N 51°03' E 002°17'0 0.0
2015-Jun-29 23:33N 51°03' E 002°17'0 0.0
2015-Jun-29 22:33N 51°03' E 002°17'0 0.0
2015-Jun-29 21:33N 51°03' E 002°17'0 0.0
2015-Jun-29 20:31N 51°03' E 002°17'0 0.0
2015-Jun-29 19:33N 51°03' E 002°17'0 0.0
2015-Jun-29 18:33N 51°03' E 002°17'0 0.0
2015-Jun-29 17:33N 51°03' E 002°17'0 0.0
2015-Jun-29 16:33N 51°03' E 002°17'0 0.0
2015-Jun-29 15:33N 51°03' E 002°17'0 0.0
2015-Jun-29 14:33N 51°03' E 002°17'0 0.0
2015-Jun-29 13:33N 51°03' E 002°17'0 0.0
2015-Jun-29 12:33N 51°03' E 002°17'0 0.0
2015-Jun-29 11:33N 51°03' E 002°17'0 0.0
2015-Jun-29 08:25N 51°03' E 002°17'0 0.0
2015-Jun-29 06:33N 51°03' E 002°17'0 0.0
2015-Jun-29 05:21N 51°03' E 002°17'0 0.0
2015-Jun-29 04:28N 51°03' E 002°17'0 0.0
2015-Jun-29 03:32N 51°03' E 002°17'0 0.0
2015-Jun-29 02:26N 51°03' E 002°17'0 0.0
2015-Jun-29 01:33N 51°03' E 002°17'3 0.6
2015-Jun-28 21:25N 51°03' E 002°21'2 1.9
2015-Jun-28 20:28N 51°04' E 002°19'1515.0
2015-Jun-28 19:30N 51°02' E 001°56'1212.3
2015-Jun-28 18:33N 51°09' E 001°41'1312.7
2015-Jun-28 17:33N 51°22' E 001°43'1414.1
2015-Jun-28 16:33N 51°36' E 001°44'1413.5
2015-Jun-28 15:33N 51°49' E 001°42'1111.4
2015-Jun-28 14:33N 51°56' E 001°27'9 8.6
2015-Jun-28 13:33N 51°60' E 001°14'4 3.7
2015-Jun-28 12:33N 52°02' E 001°09'0 0.0
2015-Jun-28 11:33N 52°02' E 001°09'0 0.0
2015-Jun-28 10:27N 52°02' E 001°09'0 0.0
2015-Jun-28 09:29N 52°02' E 001°09'0 0.0
2015-Jun-28 08:26N 52°02' E 001°09'0 0.0
2015-Jun-28 07:31N 52°02' E 001°09'0 0.0
2015-Jun-28 06:31N 52°02' E 001°09'0 0.0
2015-Jun-28 05:31N 52°02' E 001°09'0 0.0
2015-Jun-28 04:33N 52°02' E 001°09'0 0.0
2015-Jun-28 03:30N 52°02' E 001°09'0 0.0
2015-Jun-28 02:32N 52°02' E 001°09'0 0.0
2015-Jun-28 01:32N 52°02' E 001°09'0 0.0
2015-Jun-28 00:31N 52°02' E 001°09'0 0.0
2015-Jun-27 23:31N 52°02' E 001°09'0 0.0
2015-Jun-27 22:31N 52°02' E 001°09'0 0.0
2015-Jun-27 21:33N 52°02' E 001°09'0 0.0
2015-Jun-27 20:33N 52°02' E 001°09'0 0.0
2015-Jun-27 19:32N 52°02' E 001°09'0 0.0
2015-Jun-27 18:32N 52°02' E 001°09'0 0.0
2015-Jun-27 17:31N 52°02' E 001°09'0 0.0
2015-Jun-27 16:31N 52°02' E 001°09'0 0.0
2015-Jun-27 15:28N 52°02' E 001°09'0 0.0
2015-Jun-27 14:30N 52°02' E 001°09'0 0.0
2015-Jun-27 13:33N 52°02' E 001°09'0 0.0
2015-Jun-27 12:29N 52°02' E 001°09'0 0.0
2015-Jun-27 11:32N 52°02' E 001°09'0 0.0
2015-Jun-27 10:28N 52°02' E 001°09'0 0.0
2015-Jun-27 09:31N 52°02' E 001°09'0 0.0
2015-Jun-27 08:30N 52°02' E 001°09'0 0.0
2015-Jun-27 07:33N 52°02' E 001°09'0 0.0
2015-Jun-27 06:33N 52°02' E 001°09'0 0.0
2015-Jun-27 05:32N 52°02' E 001°09'0 0.0
2015-Jun-27 04:32N 52°02' E 001°09'0 0.0
2015-Jun-27 03:31N 52°02' E 001°09'0 0.0
2015-Jun-27 02:31N 52°02' E 001°09'0 0.0
2015-Jun-27 01:33N 52°02' E 001°09'0 0.0
2015-Jun-27 00:33N 52°02' E 001°09'0 0.0
2015-Jun-26 23:33N 52°02' E 001°09'0 0.0
2015-Jun-26 22:32N 52°02' E 001°09'0 0.0
2015-Jun-26 21:29N 52°02' E 001°09'0 0.0
2015-Jun-26 20:31N 52°02' E 001°09'0 0.0
2015-Jun-26 19:28N 52°02' E 001°09'0 0.0
2015-Jun-26 18:33N 52°02' E 001°09'0 0.0
2015-Jun-26 17:33N 52°02' E 001°09'0 0.0
2015-Jun-26 16:30N 52°02' E 001°09'0 0.0
2015-Jun-26 15:32N 52°02' E 001°09'0 0.0
2015-Jun-26 14:33N 52°02' E 001°09'3 3.2
2015-Jun-26 13:33N 51°60' E 001°13'7 7.4
2015-Jun-26 12:33N 51°56' E 001°23'8 8.5
2015-Jun-26 11:33N 51°52' E 001°36'8 8.3
2015-Jun-26 10:33N 51°48' E 001°47'1212.2
2015-Jun-26 09:33N 51°36' E 001°47'1212.4
2015-Jun-26 08:33N 51°24' E 001°44'1211.8
2015-Jun-26 07:33N 51°12' E 001°40'10 9.9
2015-Jun-26 06:33N 51°03' E 001°35'1212.0
2015-Jun-26 05:33N 50°52' E 001°24'1211.6
2015-Jun-26 04:33N 50°42' E 001°18'1111.5
2015-Jun-26 03:33N 50°34' E 001°05'7310.4
2015-Jun-25 20:31N 50°11' W 000°45'8 8.7
2015-Jun-25 19:33N 50°08' W 000°57'9 8.9
2015-Jun-25 18:33N 50°06' W 001°10'10 9.7
2015-Jun-25 17:33N 50°03' W 001°24'1110.7
2015-Jun-25 16:33N 50°00' W 001°40'1211.7
2015-Jun-25 15:33N 49°57' W 001°58'1211.9
2015-Jun-25 14:33N 49°54' W 002°16'1211.8
2015-Jun-25 13:33N 49°51' W 002°33'  
Track history (hours):
 
Tides and Currents Weather Stations Pressure Air Temp Water Temp Dewpoint Dewpoint Depression Visibility Wind Speed Wind Dir Waves Ship Positions

Citadel

Last reported at 2015-Jul-05 12:32 UTC. Time now 2015-Jul-05 12:53 UTC.
Position N 49°14' W 000°18'.

Length 111 m; draft 4 m.

Type: Cargo ship. MMSI: 245977000.

Date/timePositionNaut miles runAvg speedWind from/ knotsBaromVisibWave heightAir tempDewpointWater temp
2015-Jul-05 12:32N 49°14' W 000°18'0 0.0
2015-Jul-05 11:32N 49°14' W 000°18'0 0.0
2015-Jul-05 10:31N 49°14' W 000°18'0 0.0
2015-Jul-05 09:31N 49°14' W 000°18'0 0.0
2015-Jul-05 08:33N 49°14' W 000°18'0 0.0
2015-Jul-05 07:33N 49°14' W 000°18'0 0.0
2015-Jul-05 06:33N 49°14' W 000°18'0 0.0
2015-Jul-05 05:32N 49°14' W 000°18'0 0.0
2015-Jul-05 04:32N 49°14' W 000°18'0 0.0
2015-Jul-05 03:31N 49°14' W 000°18'0 0.0
2015-Jul-05 02:31N 49°14' W 000°18'0 0.0
2015-Jul-05 01:33N 49°14' W 000°18'0 0.0
2015-Jul-05 00:33N 49°14' W 000°18'0 0.0
2015-Jul-04 23:32N 49°14' W 000°18'0 0.0
2015-Jul-04 22:32N 49°14' W 000°18'0 0.0
2015-Jul-04 21:32N 49°14' W 000°18'0 0.0
2015-Jul-04 20:28N 49°14' W 000°18'0 0.0
2015-Jul-04 19:31N 49°14' W 000°18'0 0.0
2015-Jul-04 18:33N 49°14' W 000°18'0 0.0
2015-Jul-04 17:33N 49°14' W 000°18'0 0.0
2015-Jul-04 16:32N 49°14' W 000°18'0 0.0
2015-Jul-04 15:32N 49°14' W 000°18'0 0.0
2015-Jul-04 14:32N 49°14' W 000°18'0 0.0
2015-Jul-04 13:31N 49°14' W 000°18'0 0.0
2015-Jul-04 12:31N 49°14' W 000°18'0 0.0
2015-Jul-04 11:33N 49°14' W 000°18'0 0.3
2015-Jul-04 10:34N 49°13' W 000°18'4 3.9
2015-Jul-04 09:33N 49°17' W 000°15'4 4.3
2015-Jul-04 08:34N 49°21' W 000°14'1111.2
2015-Jul-04 07:34N 49°32' W 000°08'1212.4
2015-Jul-04 06:34N 49°43' W 000°02'1312.7
2015-Jul-04 05:32N 49°54' E 000°09'1312.9
2015-Jul-04 04:33N 50°05' E 000°19'1312.6
2015-Jul-04 03:31N 50°16' E 000°30'2211.0
2015-Jul-04 01:32N 50°37' E 000°42'1110.9
2015-Jul-04 00:33N 50°44' E 000°55'1210.1
2015-Jul-03 23:19N 50°51' E 001°10'810.5
2015-Jul-03 22:33N 50°56' E 001°20'1211.9
2015-Jul-03 21:34N 51°04' E 001°35'1312.5
2015-Jul-03 20:33N 51°02' E 001°55'1010.2
2015-Jul-03 19:33N 51°00' E 002°11'0 0.0
2015-Jul-03 18:09N 51°00' E 002°11'0 0.0
2015-Jul-03 16:28N 51°00' E 002°11'0 0.0
2015-Jul-03 14:03N 51°00' E 002°11'0 0.0
2015-Jul-03 13:33N 51°00' E 002°11'0 0.0
2015-Jul-03 12:06N 51°00' E 002°11'0 0.0
2015-Jul-03 11:24N 51°00' E 002°11'0 0.0
2015-Jul-03 10:05N 51°00' E 002°11'0 0.0
2015-Jul-03 09:22N 51°00' E 002°11'0 0.0
2015-Jul-03 08:27N 51°00' E 002°11'3 3.4
2015-Jul-03 07:33N 51°03' E 002°08'1010.1
2015-Jul-03 06:31N 51°02' E 001°52'6 6.4
2015-Jul-03 05:33N 50°59' E 001°43'8 7.5
2015-Jul-03 04:32N 50°55' E 001°32'13 9.4
2015-Jul-03 03:07N 50°43' E 001°23'3513.5
2015-Jul-03 00:33N 50°17' E 000°46'1813.9
2015-Jul-02 23:17N 50°04' E 000°29'1114.6
2015-Jul-02 22:34N 49°55' E 000°18'1615.6
2015-Jul-02 21:34N 49°43' E 000°03'1514.7
2015-Jul-02 20:34N 49°30' W 000°05'1111.4
2015-Jul-02 19:33N 49°26' E 000°11'1211.6
2015-Jul-02 18:33N 49°29' E 000°29'11 9.4
2015-Jul-02 17:23N 49°31' E 000°45'1 0.0
2015-Jun-30 19:32N 49°30' E 000°46'9 8.8
2015-Jun-30 18:33N 49°26' E 000°34'1010.5
2015-Jun-30 17:33N 49°26' E 000°18'1212.0
2015-Jun-30 16:33N 49°28' W 000°00'5 5.4
2015-Jun-30 15:33N 49°32' W 000°05'1010.1
2015-Jun-30 14:33N 49°41' E 000°01'1211.8
2015-Jun-30 13:33N 49°52' E 000°09'4611.4
2015-Jun-30 09:33N 50°34' E 000°38'1110.8
2015-Jun-30 08:33N 50°41' E 000°51'1111.0
2015-Jun-30 07:33N 50°48' E 001°04'1211.7
2015-Jun-30 06:33N 50°55' E 001°19'1313.3
2015-Jun-30 05:34N 51°04' E 001°34'1212.3
2015-Jun-30 04:33N 51°02' E 001°53'1313.4
2015-Jun-30 03:33N 51°04' E 002°14'4 4.3
2015-Jun-30 02:33N 51°03' E 002°21'3 2.5
2015-Jun-30 01:33N 51°03' E 002°17'0 0.0
2015-Jun-30 00:33N 51°03' E 002°17'0 0.0
2015-Jun-29 23:33N 51°03' E 002°17'0 0.0
2015-Jun-29 22:33N 51°03' E 002°17'0 0.0
2015-Jun-29 21:33N 51°03' E 002°17'0 0.0
2015-Jun-29 20:31N 51°03' E 002°17'0 0.0
2015-Jun-29 19:33N 51°03' E 002°17'0 0.0
2015-Jun-29 18:33N 51°03' E 002°17'0 0.0
2015-Jun-29 17:33N 51°03' E 002°17'0 0.0
2015-Jun-29 16:33N 51°03' E 002°17'0 0.0
2015-Jun-29 15:33N 51°03' E 002°17'0 0.0
2015-Jun-29 14:33N 51°03' E 002°17'0 0.0
2015-Jun-29 13:33N 51°03' E 002°17'0 0.0
2015-Jun-29 12:33N 51°03' E 002°17'0 0.0
2015-Jun-29 11:33N 51°03' E 002°17'0 0.0
2015-Jun-29 08:25N 51°03' E 002°17'0 0.0
2015-Jun-29 06:33N 51°03' E 002°17'0 0.0
2015-Jun-29 05:21N 51°03' E 002°17'0 0.0
2015-Jun-29 04:28N 51°03' E 002°17'0 0.0
2015-Jun-29 03:32N 51°03' E 002°17'0 0.0
2015-Jun-29 02:26N 51°03' E 002°17'0 0.0
2015-Jun-29 01:33N 51°03' E 002°17'3 0.6
2015-Jun-28 21:25N 51°03' E 002°21'2 1.9
2015-Jun-28 20:28N 51°04' E 002°19'1515.0
2015-Jun-28 19:30N 51°02' E 001°56'1212.3
2015-Jun-28 18:33N 51°09' E 001°41'1312.7
2015-Jun-28 17:33N 51°22' E 001°43'1414.1
2015-Jun-28 16:33N 51°36' E 001°44'1413.5
2015-Jun-28 15:33N 51°49' E 001°42'1111.4
2015-Jun-28 14:33N 51°56' E 001°27'9 8.6
2015-Jun-28 13:33N 51°60' E 001°14'4 3.7
2015-Jun-28 12:33N 52°02' E 001°09'0 0.0
2015-Jun-28 11:33N 52°02' E 001°09'0 0.0
2015-Jun-28 10:27N 52°02' E 001°09'0 0.0
2015-Jun-28 09:29N 52°02' E 001°09'0 0.0
2015-Jun-28 08:26N 52°02' E 001°09'0 0.0
2015-Jun-28 07:31N 52°02' E 001°09'0 0.0
2015-Jun-28 06:31N 52°02' E 001°09'0 0.0
2015-Jun-28 05:31N 52°02' E 001°09'0 0.0
2015-Jun-28 04:33N 52°02' E 001°09'0 0.0
2015-Jun-28 03:30N 52°02' E 001°09'0 0.0
2015-Jun-28 02:32N 52°02' E 001°09'0 0.0
2015-Jun-28 01:32N 52°02' E 001°09'0 0.0
2015-Jun-28 00:31N 52°02' E 001°09'0 0.0
2015-Jun-27 23:31N 52°02' E 001°09'0 0.0
2015-Jun-27 22:31N 52°02' E 001°09'0 0.0
2015-Jun-27 21:33N 52°02' E 001°09'0 0.0
2015-Jun-27 20:33N 52°02' E 001°09'0 0.0
2015-Jun-27 19:32N 52°02' E 001°09'0 0.0
2015-Jun-27 18:32N 52°02' E 001°09'0 0.0
2015-Jun-27 17:31N 52°02' E 001°09'0 0.0
2015-Jun-27 16:31N 52°02' E 001°09'0 0.0
2015-Jun-27 15:28N 52°02' E 001°09'0 0.0
2015-Jun-27 14:30N 52°02' E 001°09'0 0.0
2015-Jun-27 13:33N 52°02' E 001°09'0 0.0
2015-Jun-27 12:29N 52°02' E 001°09'0 0.0
2015-Jun-27 11:32N 52°02' E 001°09'0 0.0
2015-Jun-27 10:28N 52°02' E 001°09'0 0.0
2015-Jun-27 09:31N 52°02' E 001°09'0 0.0
2015-Jun-27 08:30N 52°02' E 001°09'0 0.0
2015-Jun-27 07:33N 52°02' E 001°09'0 0.0
2015-Jun-27 06:33N 52°02' E 001°09'0 0.0
2015-Jun-27 05:32N 52°02' E 001°09'0 0.0
2015-Jun-27 04:32N 52°02' E 001°09'0 0.0
2015-Jun-27 03:31N 52°02' E 001°09'0 0.0
2015-Jun-27 02:31N 52°02' E 001°09'0 0.0
2015-Jun-27 01:33N 52°02' E 001°09'0 0.0
2015-Jun-27 00:33N 52°02' E 001°09'0 0.0
2015-Jun-26 23:33N 52°02' E 001°09'0 0.0
2015-Jun-26 22:32N 52°02' E 001°09'0 0.0
2015-Jun-26 21:29N 52°02' E 001°09'0 0.0
2015-Jun-26 20:31N 52°02' E 001°09'0 0.0
2015-Jun-26 19:28N 52°02' E 001°09'0 0.0
2015-Jun-26 18:33N 52°02' E 001°09'0 0.0
2015-Jun-26 17:33N 52°02' E 001°09'0 0.0
2015-Jun-26 16:30N 52°02' E 001°09'0 0.0
2015-Jun-26 15:32N 52°02' E 001°09'0 0.0
2015-Jun-26 14:33N 52°02' E 001°09'3 3.2
2015-Jun-26 13:33N 51°60' E 001°13'7 7.4
2015-Jun-26 12:33N 51°56' E 001°23'8 8.5
2015-Jun-26 11:33N 51°52' E 001°36'8 8.3
2015-Jun-26 10:33N 51°48' E 001°47'1212.2
2015-Jun-26 09:33N 51°36' E 001°47'1212.4
2015-Jun-26 08:33N 51°24' E 001°44'1211.8
2015-Jun-26 07:33N 51°12' E 001°40'10 9.9
2015-Jun-26 06:33N 51°03' E 001°35'1212.0
2015-Jun-26 05:33N 50°52' E 001°24'1211.6
2015-Jun-26 04:33N 50°42' E 001°18'1111.5
2015-Jun-26 03:33N 50°34' E 001°05'7310.4
2015-Jun-25 20:31N 50°11' W 000°45'8 8.7
2015-Jun-25 19:33N 50°08' W 000°57'9 8.9
2015-Jun-25 18:33N 50°06' W 001°10'10 9.7
2015-Jun-25 17:33N 50°03' W 001°24'1110.7
2015-Jun-25 16:33N 50°00' W 001°40'1211.7
2015-Jun-25 15:33N 49°57' W 001°58'1211.9
2015-Jun-25 14:33N 49°54' W 002°16'1211.8
2015-Jun-25 13:33N 49°51' W 002°33'  

Dump ship's entire track history